Time;durP1;ratioP1;P1;durP2;ratioP2;P2;SDS_P1;SDS_P2;PMS_P1;PMS_P2;Temp;Humidity;BMP_temperature;BMP_pressure;BME280_temperature;BME280_humidity;BME280_pressure;Samples;Min_cycle;Max_cycle;Signal;HPM_P1;HPM_P2
2023/09/29 00:01:18;;;;;;;0.10;0.10;;;15.80;52.30;;;;;;5051594;28;20200;-62
2023/09/29 00:03:48;;;;;;;0.00;0.00;;;15.80;52.30;;;;;;5039741;28;20584;-62
2023/09/29 00:06:19;;;;;;;0.10;0.10;;;15.80;52.30;;;;;;5031284;28;20222;-66
2023/09/29 00:08:52;;;;;;;0.10;0.10;;;15.90;52.40;;;;;;5031542;28;20676;-66
2023/09/29 00:11:22;;;;;;;0.10;0.10;;;15.90;52.40;;;;;;5031547;28;20195;-64
2023/09/29 00:13:53;;;;;;;0.10;0.10;;;15.90;52.40;;;;;;5031450;28;20218;-64
2023/09/29 00:16:24;;;;;;;0.10;0.10;;;16.00;52.40;;;;;;5036482;28;20234;-62
2023/09/29 00:18:55;;;;;;;0.10;0.10;;;16.00;52.40;;;;;;5051566;28;20199;-63
2023/09/29 00:21:26;;;;;;;0.10;0.10;;;16.00;52.40;;;;;;5051431;28;20202;-64
2023/09/29 00:23:58;;;;;;;0.10;0.10;;;16.10;52.40;;;;;;5050905;28;20196;-64
2023/09/29 00:26:29;;;;;;;0.08;0.08;;;16.10;52.30;;;;;;5051100;28;20199;-61
2023/09/29 00:29:02;;;;;;;0.05;0.05;;;16.20;52.40;;;;;;5051076;28;20267;-64
2023/09/29 00:31:33;;;;;;;0.10;0.10;;;16.20;52.40;;;;;;5054219;28;20238;-65
2023/09/29 00:34:03;;;;;;;0.00;0.00;;;16.30;52.40;;;;;;5055668;28;20282;-61
2023/09/29 00:36:34;;;;;;;0.10;0.10;;;16.30;52.40;;;;;;5054925;28;20310;-61
2023/09/29 00:39:08;;;;;;;0.10;0.10;;;16.30;52.40;;;;;;5054304;28;20199;-66
2023/09/29 00:41:39;;;;;;;0.10;0.10;;;16.30;52.30;;;;;;5055321;28;20203;-65
2023/09/29 00:44:10;;;;;;;0.10;0.10;;;16.40;52.30;;;;;;5055102;28;20249;-63
2023/09/29 00:46:41;;;;;;;0.00;0.00;;;16.40;52.20;;;;;;5055885;28;20215;-64
2023/09/29 00:49:13;;;;;;;0.10;0.10;;;16.50;52.20;;;;;;5055254;28;20627;-66
2023/09/29 00:51:44;;;;;;;0.03;0.03;;;16.50;52.20;;;;;;5054599;28;20195;-63
2023/09/29 00:54:18;;;;;;;0.10;0.10;;;16.50;52.10;;;;;;5054826;28;20202;-64
2023/09/29 00:56:49;;;;;;;0.10;0.10;;;16.60;52.10;;;;;;5055127;28;20661;-65
2023/09/29 00:59:19;;;;;;;0.10;0.10;;;16.60;52.10;;;;;;5054656;28;20199;-62
2023/09/29 01:01:50;;;;;;;0.00;0.00;;;16.60;52.10;;;;;;5054805;28;20202;-62
2023/09/29 01:04:21;;;;;;;0.10;0.10;;;16.70;52.10;;;;;;5054621;28;20214;-64
2023/09/29 01:06:52;;;;;;;0.10;0.10;;;16.70;52.00;;;;;;5054770;28;20208;-64
2023/09/29 01:09:25;;;;;;;0.10;0.10;;;16.70;52.00;;;;;;5054824;28;20203;-64
2023/09/29 01:11:55;;;;;;;0.10;0.10;;;16.80;52.00;;;;;;5054497;28;20211;-63
2023/09/29 01:14:26;;;;;;;0.10;0.10;;;16.80;52.00;;;;;;5054338;28;20201;-64
2023/09/29 01:16:57;;;;;;;0.10;0.10;;;16.90;52.00;;;;;;5054554;28;20223;-60
2023/09/29 01:19:27;;;;;;;0.00;0.00;;;16.90;51.90;;;;;;5054680;28;20670;-66
2023/09/29 01:21:58;;;;;;;0.10;0.10;;;16.90;51.90;;;;;;5054551;28;20212;-61
2023/09/29 01:24:32;;;;;;;0.10;0.10;;;17.00;52.50;;;;;;5054456;28;20203;-63
2023/09/29 01:27:02;;;;;;;0.10;0.10;;;17.00;51.80;;;;;;5054277;28;20196;-63
2023/09/29 01:29:33;;;;;;;0.00;0.00;;;17.00;52.40;;;;;;5054549;28;20210;-61
2023/09/29 01:32:04;;;;;;;0.00;0.00;;;17.10;51.70;;;;;;5044330;28;20216;-64
2023/09/29 01:34:35;;;;;;;0.00;0.00;;;17.10;51.70;;;;;;5034609;28;20571;-62
2023/09/29 01:37:07;;;;;;;0.00;0.00;;;17.10;51.60;;;;;;5034237;28;20243;-63
2023/09/29 01:39:40;;;;;;;0.00;0.00;;;17.20;51.60;;;;;;5033873;28;20207;-60
2023/09/29 01:42:11;;;;;;;0.10;0.10;;;17.20;51.60;;;;;;5032237;28;20394;-62
2023/09/29 01:44:41;;;;;;;0.10;0.10;;;17.20;51.50;;;;;;5033920;28;20283;-66
2023/09/29 01:47:12;;;;;;;0.10;0.10;;;17.20;51.50;;;;;;5056766;23;20231;-45
2023/09/29 01:49:43;;;;;;;0.00;0.00;;;17.30;51.50;;;;;;5053798;28;20609;-45
2023/09/29 01:52:13;;;;;;;0.10;0.10;;;17.30;51.50;;;;;;5053823;28;20737;-46
2023/09/29 01:54:46;;;;;;;0.05;0.05;;;17.30;51.50;;;;;;5053974;28;20655;-45
2023/09/29 01:57:17;;;;;;;0.00;0.00;;;17.30;51.40;;;;;;5053692;28;20310;-46
2023/09/29 01:59:48;;;;;;;0.10;0.10;;;17.40;52.10;;;;;;5053438;28;20214;-46
2023/09/29 02:02:19;;;;;;;0.10;0.10;;;17.40;51.50;;;;;;5053587;28;20220;-45
2023/09/29 02:04:52;;;;;;;0.10;0.10;;;17.40;51.50;;;;;;5036310;28;20833;-46
2023/09/29 02:07:24;;;;;;;0.00;0.00;;;17.50;51.50;;;;;;5033963;28;20200;-46
2023/09/29 02:09:57;;;;;;;0.10;0.10;;;17.50;51.40;;;;;;5033576;28;20216;-46
2023/09/29 02:12:30;;;;;;;0.10;0.10;;;17.50;51.30;;;;;;5034296;28;20676;-45
2023/09/29 02:15:01;;;;;;;0.10;0.10;;;17.50;51.30;;;;;;5033506;28;20200;-45
2023/09/29 02:17:34;;;;;;;0.00;0.00;;;17.60;51.30;;;;;;5047292;28;20233;-46
2023/09/29 02:20:13;;;;;;;0.10;0.10;;;17.60;51.30;;;;;;5051406;28;20237;-45
2023/09/29 02:22:44;;;;;;;0.10;0.10;;;17.70;51.30;;;;;;5052777;28;20215;-47
2023/09/29 02:25:18;;;;;;;0.10;0.10;;;17.70;51.30;;;;;;5052013;28;20195;-47
2023/09/29 02:27:49;;;;;;;0.10;0.10;;;17.70;51.20;;;;;;5053338;28;20261;-45
2023/09/29 02:30:20;;;;;;;0.10;0.10;;;17.70;51.20;;;;;;5053177;28;20202;-47
2023/09/29 02:32:52;;;;;;;0.00;0.00;;;17.80;51.20;;;;;;5052774;28;20687;-46
2023/09/29 02:35:23;;;;;;;0.00;0.00;;;17.80;51.10;;;;;;5053038;28;20211;-45
2023/09/29 02:37:54;;;;;;;0.05;0.05;;;17.80;51.10;;;;;;5052724;28;20227;-45
2023/09/29 02:40:28;;;;;;;0.10;0.10;;;17.80;51.00;;;;;;5052812;28;20227;-48
2023/09/29 02:42:59;;;;;;;0.10;0.10;;;17.80;51.10;;;;;;5052830;28;20222;-45
2023/09/29 02:45:29;;;;;;;0.00;0.00;;;17.90;51.10;;;;;;5052564;28;20602;-46
2023/09/29 02:48:01;;;;;;;0.00;0.00;;;17.90;51.10;;;;;;5053458;28;20625;-46
2023/09/29 02:50:35;;;;;;;0.00;0.00;;;17.90;51.10;;;;;;5052404;28;20253;-46
2023/09/29 02:53:07;;;;;;;0.08;0.08;;;18.00;51.10;;;;;;5050481;28;20269;-46
2023/09/29 02:55:40;;;;;;;0.10;0.10;;;18.00;51.10;;;;;;5052966;28;20219;-46
2023/09/29 02:58:10;;;;;;;0.10;0.10;;;18.00;51.00;;;;;;5052683;28;20702;-46
2023/09/29 03:00:42;;;;;;;0.00;0.00;;;18.10;51.00;;;;;;5052506;28;20195;-46
2023/09/29 03:03:14;;;;;;;0.10;0.10;;;18.10;51.00;;;;;;5052760;28;20219;-45
2023/09/29 03:05:44;;;;;;;0.10;0.10;;;18.10;51.00;;;;;;5052909;28;20663;-46
2023/09/29 03:08:15;;;;;;;0.00;0.00;;;18.10;51.00;;;;;;5052645;28;20200;-46
2023/09/29 03:10:48;;;;;;;0.10;0.10;;;18.20;51.00;;;;;;5052845;28;20199;-45
2023/09/29 03:13:18;;;;;;;0.08;0.08;;;18.20;51.00;;;;;;5052683;28;20223;-45
2023/09/29 03:15:49;;;;;;;0.10;0.10;;;18.20;51.00;;;;;;5051648;28;20196;-44
2023/09/29 03:18:19;;;;;;;0.10;0.10;;;18.20;51.00;;;;;;5052192;28;20230;-48
2023/09/29 03:20:52;;;;;;;0.10;0.10;;;18.20;51.00;;;;;;5052296;28;20545;-45
2023/09/29 03:23:22;;;;;;;0.10;0.10;;;18.30;51.00;;;;;;5051963;28;20219;-46
2023/09/29 03:25:55;;;;;;;0.10;0.10;;;18.30;51.00;;;;;;5052099;28;20203;-46
2023/09/29 03:28:26;;;;;;;0.00;0.00;;;18.30;50.90;;;;;;5052058;28;20594;-47
2023/09/29 03:31:00;;;;;;;0.10;0.10;;;18.30;50.90;;;;;;5052217;28;20199;-46
2023/09/29 03:33:32;;;;;;;0.03;0.03;;;18.40;51.00;;;;;;5051944;28;20253;-46
2023/09/29 03:36:03;;;;;;;0.08;0.08;;;18.40;51.00;;;;;;5052074;28;20196;-45
2023/09/29 03:38:37;;;;;;;0.00;0.00;;;18.40;50.90;;;;;;5047427;28;20227;-48
2023/09/29 03:41:10;;;;;;;0.10;0.10;;;18.40;50.90;;;;;;5031159;28;20219;-47
2023/09/29 03:43:41;;;;;;;0.05;0.05;;;18.50;51.00;;;;;;5031286;28;20299;-46
2023/09/29 03:48:46;;;;;;;0.10;0.10;;;18.50;50.90;;;;;;5088494;28;20255;-62
2023/09/29 03:51:24;;;;;;;0.00;0.00;;;18.50;50.90;;;;;;5091531;28;20191;-63
2023/09/29 03:53:55;;;;;;;0.08;0.08;;;18.50;50.90;;;;;;5091312;28;20618;-63
2023/09/29 03:56:27;;;;;;;0.00;0.00;;;18.60;50.90;;;;;;5091350;28;20194;-63
2023/09/29 03:58:58;;;;;;;0.00;0.00;;;18.60;50.90;;;;;;5080880;28;20231;-62
2023/09/29 04:01:29;;;;;;;0.03;0.03;;;18.60;50.90;;;;;;5071758;28;20229;-61
2023/09/29 04:04:01;;;;;;;0.00;0.00;;;18.60;50.80;;;;;;5071312;28;20282;-64
2023/09/29 04:06:31;;;;;;;0.10;0.10;;;18.60;50.80;;;;;;5070852;28;20642;-64
2023/09/29 04:09:02;;;;;;;0.10;0.10;;;18.70;50.80;;;;;;5071226;28;20195;-59
2023/09/29 04:11:35;;;;;;;0.00;0.00;;;18.70;50.80;;;;;;5070719;28;20230;-63
2023/09/29 04:14:05;;;;;;;0.08;0.08;;;18.70;50.80;;;;;;5071420;28;20201;-63
2023/09/29 04:16:36;;;;;;;0.10;0.10;;;18.70;50.80;;;;;;5071245;28;20581;-62
2023/09/29 04:19:07;;;;;;;0.10;0.10;;;18.70;50.80;;;;;;5071966;28;20198;-63
2023/09/29 04:21:37;;;;;;;0.05;0.05;;;18.80;50.90;;;;;;5071574;28;20203;-64
2023/09/29 04:24:08;;;;;;;0.10;0.10;;;18.80;50.80;;;;;;5071375;28;20689;-60
2023/09/29 04:26:41;;;;;;;0.00;0.00;;;18.80;50.80;;;;;;5090357;28;20208;-63
2023/09/29 04:29:12;;;;;;;0.00;0.00;;;18.90;50.70;;;;;;5091499;28;20201;-58
2023/09/29 04:31:42;;;;;;;0.10;0.10;;;18.90;50.70;;;;;;5092010;28;20201;-62
2023/09/29 04:34:13;;;;;;;0.10;0.10;;;18.90;50.60;;;;;;5091676;28;20190;-59
2023/09/29 04:36:44;;;;;;;0.00;0.00;;;18.90;50.50;;;;;;5091513;28;20190;-60
2023/09/29 04:39:15;;;;;;;0.00;0.00;;;19.00;50.50;;;;;;5091728;28;20198;-62
2023/09/29 04:41:47;;;;;;;0.00;0.00;;;19.00;50.40;;;;;;5086951;28;20194;-61
2023/09/29 04:44:18;;;;;;;0.00;0.00;;;19.00;50.30;;;;;;5069890;28;20198;-61
2023/09/29 04:46:49;;;;;;;0.03;0.03;;;19.00;50.20;;;;;;5073809;28;20202;-59
2023/09/29 04:49:19;;;;;;;0.00;0.00;;;19.00;50.20;;;;;;5071610;28;20198;-63
2023/09/29 04:51:50;;;;;;;0.08;0.08;;;19.00;50.10;;;;;;5070625;28;20199;-61
2023/09/29 04:54:21;;;;;;;0.00;0.00;;;19.10;50.00;;;;;;5070883;28;20199;-59
2023/09/29 04:56:53;;;;;;;0.03;0.03;;;19.10;50.00;;;;;;5070509;28;20650;-64
2023/09/29 04:59:24;;;;;;;0.00;0.00;;;19.10;50.00;;;;;;5070891;28;20234;-64
2023/09/29 05:01:54;;;;;;;0.00;0.00;;;19.10;50.00;;;;;;5070902;28;20223;-63
2023/09/29 05:04:25;;;;;;;0.00;0.00;;;19.20;50.00;;;;;;5071130;28;20195;-63
2023/09/29 05:06:56;;;;;;;0.00;0.00;;;19.20;50.00;;;;;;5071219;28;20198;-60
2023/09/29 05:09:26;;;;;;;0.00;0.00;;;19.20;50.00;;;;;;5071068;28;20211;-62
2023/09/29 05:11:59;;;;;;;0.00;0.00;;;19.20;49.90;;;;;;5070364;28;20222;-62
2023/09/29 05:14:29;;;;;;;0.00;0.00;;;19.30;50.00;;;;;;5070409;28;20195;-60
2023/09/29 05:17:00;;;;;;;0.10;0.10;;;19.30;49.90;;;;;;5072069;28;20209;-61
2023/09/29 05:19:31;;;;;;;0.00;0.00;;;19.30;49.80;;;;;;5074038;28;20191;-62
2023/09/29 05:22:02;;;;;;;0.05;0.05;;;19.40;49.80;;;;;;5083034;28;20213;-63
2023/09/29 05:24:33;;;;;;;0.08;0.08;;;19.40;49.60;;;;;;5074108;28;20197;-63
2023/09/29 05:27:06;;;;;;;0.03;0.03;;;19.40;49.70;;;;;;5074062;28;20195;-62
2023/09/29 05:29:37;;;;;;;0.00;0.00;;;19.40;49.70;;;;;;5074390;28;20209;-63
2023/09/29 05:32:07;;;;;;;0.00;0.00;;;19.50;49.70;;;;;;5074278;28;20218;-61
2023/09/29 05:34:38;;;;;;;0.00;0.00;;;19.50;49.50;;;;;;5074242;28;20228;-64
2023/09/29 05:37:09;;;;;;;0.00;0.00;;;19.50;49.50;;;;;;5073839;28;20202;-61
2023/09/29 05:39:40;;;;;;;0.00;0.00;;;19.50;49.40;;;;;;5074310;28;20217;-64
2023/09/29 05:42:12;;;;;;;0.00;0.00;;;19.60;49.40;;;;;;5074317;28;20218;-63
2023/09/29 05:44:43;;;;;;;0.10;0.10;;;19.60;49.50;;;;;;5074144;28;20195;-64
2023/09/29 05:47:13;;;;;;;0.10;0.10;;;19.60;49.50;;;;;;5074381;28;20207;-62
2023/09/29 05:49:44;;;;;;;0.10;0.10;;;19.60;49.40;;;;;;5076641;28;20201;-61
2023/09/29 05:52:15;;;;;;;0.00;0.00;;;19.60;49.50;;;;;;5074051;28;20598;-60
2023/09/29 05:54:46;;;;;;;0.10;0.10;;;19.70;49.60;;;;;;5074017;28;20203;-64
2023/09/29 05:57:19;;;;;;;0.05;0.05;;;19.70;49.50;;;;;;5073417;28;20195;-61
2023/09/29 05:59:51;;;;;;;0.00;0.00;;;19.70;49.50;;;;;;5073117;28;20203;-62
2023/09/29 06:02:21;;;;;;;0.00;0.00;;;19.70;49.50;;;;;;5073324;28;20686;-62
2023/09/29 06:04:52;;;;;;;0.00;0.00;;;19.70;49.40;;;;;;5073073;28;20195;-60
2023/09/29 06:07:23;;;;;;;0.00;0.00;;;19.70;49.40;;;;;;5073453;28;20198;-64
2023/09/29 06:09:53;;;;;;;0.00;0.00;;;19.70;49.40;;;;;;5073230;28;20673;-60
2023/09/29 06:12:26;;;;;;;0.10;0.10;;;19.70;49.40;;;;;;5073511;28;20221;-62
2023/09/29 06:14:56;;;;;;;0.00;0.00;;;19.70;49.30;;;;;;5073484;28;20210;-63
2023/09/29 06:17:27;;;;;;;0.10;0.10;;;19.70;49.20;;;;;;5073144;28;20199;-61
2023/09/29 06:19:58;;;;;;;0.00;0.00;;;19.70;49.20;;;;;;5073544;28;20191;-61
2023/09/29 06:22:28;;;;;;;0.00;0.00;;;19.70;49.30;;;;;;5073061;28;20210;-62
2023/09/29 06:24:59;;;;;;;0.00;0.00;;;19.80;49.30;;;;;;5072889;28;20202;-64
2023/09/29 06:27:32;;;;;;;0.00;0.00;;;19.70;49.20;;;;;;5073045;28;20202;-64
2023/09/29 06:30:03;;;;;;;0.00;0.00;;;19.70;49.20;;;;;;5072655;28;20187;-61
2023/09/29 06:32:33;;;;;;;0.00;0.00;;;19.70;49.30;;;;;;5073048;28;20221;-62
2023/09/29 06:35:05;;;;;;;0.10;0.10;;;19.70;49.40;;;;;;5073148;28;20213;-61
2023/09/29 06:37:35;;;;;;;0.00;0.00;;;19.70;49.30;;;;;;5072847;28;20198;-59
2023/09/29 06:40:10;;;;;;;0.00;0.00;;;19.70;49.30;;;;;;5073035;28;20715;-63
2023/09/29 06:42:43;;;;;;;0.03;0.03;;;19.70;49.30;;;;;;5072814;28;20250;-61
2023/09/29 06:45:14;;;;;;;0.00;0.00;;;19.70;49.20;;;;;;5072536;28;20264;-61
2023/09/29 06:47:45;;;;;;;0.00;0.00;;;19.70;49.20;;;;;;5073474;22;20802;-45
2023/09/29 06:50:16;;;;;;;0.10;0.10;;;19.70;49.10;;;;;;5051990;28;20671;-46
2023/09/29 06:52:46;;;;;;;0.00;0.00;;;19.70;49.10;;;;;;5052542;28;20534;-46
2023/09/29 06:55:17;;;;;;;0.05;0.05;;;19.70;49.10;;;;;;5052892;28;20237;-46
2023/09/29 06:57:50;;;;;;;0.00;0.00;;;19.70;49.20;;;;;;5052655;28;20222;-47
2023/09/29 07:00:21;;;;;;;0.00;0.00;;;19.70;49.20;;;;;;5052333;28;20199;-46
2023/09/29 07:02:52;;;;;;;0.00;0.00;;;19.60;49.00;;;;;;5052477;28;20761;-44
2023/09/29 07:05:23;;;;;;;0.00;0.00;;;19.60;48.90;;;;;;5052522;28;20200;-45
2023/09/29 07:07:54;;;;;;;0.00;0.00;;;19.60;49.00;;;;;;5052547;28;20215;-47
2023/09/29 07:10:25;;;;;;;0.00;0.00;;;19.60;48.80;;;;;;5052540;28;20195;-47
2023/09/29 07:12:58;;;;;;;0.10;0.10;;;19.60;48.70;;;;;;5052179;28;20612;-46
2023/09/29 07:15:29;;;;;;;0.05;0.05;;;19.60;48.60;;;;;;5052496;28;20667;-45
2023/09/29 07:18:00;;;;;;;0.10;0.10;;;19.60;48.60;;;;;;5052516;28;20229;-45
2023/09/29 07:20:31;;;;;;;0.00;0.00;;;19.60;48.60;;;;;;5052130;28;20253;-45
2023/09/29 07:23:03;;;;;;;0.10;0.10;;;19.60;48.60;;;;;;5051331;28;20270;-46
2023/09/29 07:25:37;;;;;;;0.10;0.10;;;19.60;48.60;;;;;;5051819;28;20230;-46
2023/09/29 07:28:15;;;;;;;0.00;0.00;;;19.50;48.50;;;;;;5052223;28;20561;-46
2023/09/29 07:30:47;;;;;;;0.10;0.10;;;19.50;48.40;;;;;;5050569;28;20546;-45
2023/09/29 07:33:18;;;;;;;0.10;0.10;;;19.50;48.40;;;;;;5051768;28;20215;-44
2023/09/29 07:35:49;;;;;;;0.00;0.00;;;19.50;48.40;;;;;;5051307;28;20222;-45
2023/09/29 07:38:21;;;;;;;0.10;0.10;;;19.50;48.40;;;;;;5051599;28;20250;-46
2023/09/29 07:40:53;;;;;;;0.10;0.10;;;19.50;48.50;;;;;;5051785;28;20196;-46
2023/09/29 07:43:27;;;;;;;0.10;0.10;;;19.50;48.50;;;;;;5046423;28;20777;-45
2023/09/29 07:45:58;;;;;;;0.10;0.10;;;19.40;48.90;;;;;;5032640;28;20199;-44
2023/09/29 07:48:29;;;;;;;0.10;0.10;;;19.40;48.30;;;;;;5052303;28;20235;-45
2023/09/29 07:51:01;;;;;;;0.05;0.05;;;19.40;48.40;;;;;;5052206;28;20199;-48
2023/09/29 07:53:33;;;;;;;0.10;0.10;;;19.40;48.40;;;;;;5052121;28;20302;-45
2023/09/29 07:56:05;;;;;;;0.00;0.00;;;19.40;48.30;;;;;;5051923;28;20202;-45
2023/09/29 07:58:39;;;;;;;0.00;0.00;;;19.40;48.30;;;;;;5052079;28;20226;-46
2023/09/29 08:01:11;;;;;;;0.00;0.00;;;19.40;48.30;;;;;;5051493;28;20199;-47
2023/09/29 08:03:42;;;;;;;0.00;0.00;;;19.40;48.20;;;;;;5051599;28;20298;-46
2023/09/29 08:06:15;;;;;;;0.00;0.00;;;19.40;48.10;;;;;;5034129;28;20196;-46
2023/09/29 08:08:47;;;;;;;0.00;0.00;;;19.30;48.10;;;;;;5032585;28;20287;-46
2023/09/29 08:11:19;;;;;;;0.00;0.00;;;19.30;48.10;;;;;;5035320;28;20204;-46
2023/09/29 08:13:55;;;;;;;0.08;0.08;;;19.30;48.10;;;;;;5030773;28;20215;-48
2023/09/29 08:16:27;;;;;;;0.00;0.00;;;19.30;48.20;;;;;;5038195;28;20274;-46
2023/09/29 08:18:59;;;;;;;0.03;0.03;;;19.30;48.20;;;;;;5031335;28;20228;-45
2023/09/29 08:21:32;;;;;;;0.10;0.10;;;19.30;48.30;;;;;;5030474;28;20663;-45
2023/09/29 08:24:06;;;;;;;0.00;0.00;;;19.30;48.40;;;;;;5030824;28;20202;-46
2023/09/29 08:26:38;;;;;;;0.10;0.10;;;19.30;48.40;;;;;;5038422;28;20195;-44
2023/09/29 08:29:15;;;;;;;0.10;0.10;;;19.20;48.40;;;;;;5046516;28;20203;-46
2023/09/29 08:31:47;;;;;;;0.00;0.00;;;19.20;48.40;;;;;;5038566;28;20202;-46
2023/09/29 08:34:18;;;;;;;0.00;0.00;;;19.20;48.50;;;;;;5029658;28;20604;-45
2023/09/29 08:36:49;;;;;;;0.00;0.00;;;19.20;48.50;;;;;;5030138;28;20311;-45
2023/09/29 08:39:20;;;;;;;0.10;0.10;;;19.20;48.50;;;;;;5030200;28;20427;-44
2023/09/29 08:41:56;;;;;;;0.10;0.10;;;19.20;48.40;;;;;;5031126;28;20595;-45
2023/09/29 08:44:30;;;;;;;0.00;0.00;;;19.20;48.40;;;;;;5044270;28;20195;-43
2023/09/29 08:47:04;;;;;;;0.00;0.00;;;19.20;48.40;;;;;;5046682;28;20619;-47
2023/09/29 08:49:35;;;;;;;0.00;0.00;;;19.20;48.40;;;;;;5031106;28;20219;-46
2023/09/29 08:52:07;;;;;;;0.00;0.00;;;19.20;48.30;;;;;;5032787;28;20223;-44
2023/09/29 08:54:38;;;;;;;0.00;0.00;;;19.10;48.30;;;;;;5032552;28;20570;-46
2023/09/29 08:57:10;;;;;;;0.00;0.00;;;19.10;48.40;;;;;;5051236;28;20567;-47
2023/09/29 08:59:45;;;;;;;0.00;0.00;;;19.10;48.40;;;;;;5050890;28;20699;-47
2023/09/29 09:02:16;;;;;;;0.00;0.00;;;19.10;48.40;;;;;;5053790;28;20237;-47
2023/09/29 09:04:47;;;;;;;0.00;0.00;;;19.10;48.40;;;;;;5054220;28;20651;-46
2023/09/29 09:07:18;;;;;;;0.00;0.00;;;19.00;48.40;;;;;;5053649;28;20199;-46
2023/09/29 09:09:52;;;;;;;0.00;0.00;;;19.00;48.50;;;;;;5042201;28;20550;-46
2023/09/29 09:12:34;;;;;;;0.00;0.00;;;19.00;48.50;;;;;;5053698;28;20212;-45
2023/09/29 09:15:14;;;;;;;0.10;0.10;;;19.00;48.50;;;;;;5053907;28;20231;-46
2023/09/29 09:17:44;;;;;;;0.10;0.10;;;19.00;48.50;;;;;;5051633;28;20206;-46
2023/09/29 09:20:17;;;;;;;0.10;0.10;;;19.00;48.50;;;;;;5033753;28;20224;-46
2023/09/29 09:22:58;;;;;;;0.10;0.10;;;19.00;48.60;;;;;;5033140;28;20219;-49
2023/09/29 09:25:38;;;;;;;0.10;0.10;;;19.00;49.20;;;;;;5033874;28;20238;-46
2023/09/29 09:28:16;;;;;;;0.00;0.00;;;19.00;48.70;;;;;;5033418;28;20624;-47
2023/09/29 09:30:51;;;;;;;0.00;0.00;;;18.90;48.60;;;;;;5034267;28;20552;-45
2023/09/29 09:33:23;;;;;;;0.10;0.10;;;18.90;48.60;;;;;;5034065;28;20215;-45
2023/09/29 09:35:53;;;;;;;0.00;0.00;;;18.90;48.70;;;;;;5042774;28;20283;-45
2023/09/29 09:38:35;;;;;;;0.00;0.00;;;18.90;48.70;;;;;;5042036;28;20674;-46
2023/09/29 09:41:06;;;;;;;0.10;0.10;;;18.80;48.70;;;;;;5053652;28;20191;-45
2023/09/29 09:43:38;;;;;;;0.00;0.00;;;18.80;48.70;;;;;;5053964;28;20265;-44
2023/09/29 09:46:12;;;;;;;0.00;0.00;;;18.80;48.80;;;;;;5053732;28;20254;-46
2023/09/29 09:48:51;;;;;;;0.10;0.10;;;18.80;48.80;;;;;;5065379;23;20322;-59
2023/09/29 09:51:33;;;;;;;0.00;0.00;;;18.80;48.90;;;;;;5053884;28;20199;-65
2023/09/29 09:54:08;;;;;;;0.10;0.10;;;18.80;48.90;;;;;;5033365;28;20283;-57
2023/09/29 09:56:46;;;;;;;0.00;0.00;;;18.80;48.90;;;;;;5033219;28;20569;-57
2023/09/29 09:59:17;;;;;;;0.00;0.00;;;18.70;48.90;;;;;;5031380;28;20215;-60
2023/09/29 10:01:51;;;;;;;0.00;0.00;;;18.70;48.90;;;;;;5035457;28;20192;-57
2023/09/29 10:04:24;;;;;;;0.00;0.00;;;18.70;49.00;;;;;;5032197;28;20195;-55
2023/09/29 10:06:56;;;;;;;0.10;0.10;;;18.70;49.00;;;;;;5030795;28;20427;-63
2023/09/29 10:09:26;;;;;;;0.00;0.00;;;18.70;49.10;;;;;;5033010;28;20239;-58
2023/09/29 10:12:06;;;;;;;0.00;0.00;;;18.70;49.10;;;;;;5032976;28;20230;-61
2023/09/29 10:14:45;;;;;;;0.10;0.10;;;18.60;49.10;;;;;;5031369;28;20192;-59
2023/09/29 10:17:17;;;;;;;0.05;0.05;;;18.60;49.10;;;;;;5032900;28;20195;-56
2023/09/29 10:19:50;;;;;;;0.00;0.00;;;18.60;49.10;;;;;;5032920;28;20299;-57
2023/09/29 10:22:28;;;;;;;0.00;0.00;;;18.60;49.10;;;;;;5032613;28;20223;-52
2023/09/29 10:24:59;;;;;;;0.10;0.10;;;18.60;49.10;;;;;;5033515;28;20662;-59
2023/09/29 10:27:35;;;;;;;0.10;0.10;;;18.60;49.20;;;;;;5032836;28;20543;-57
2023/09/29 10:30:18;;;;;;;0.00;0.00;;;18.50;49.10;;;;;;5032826;28;20183;-56
2023/09/29 10:32:51;;;;;;;0.00;0.00;;;18.50;49.20;;;;;;5029964;28;20576;-50
2023/09/29 10:35:24;;;;;;;0.00;0.00;;;18.50;49.20;;;;;;5032795;28;20199;-59
2023/09/29 10:37:56;;;;;;;0.00;0.00;;;18.50;49.20;;;;;;5030368;28;20674;-54
2023/09/29 10:40:32;;;;;;;0.05;0.05;;;18.50;49.30;;;;;;5029419;28;20298;-58
2023/09/29 10:43:03;;;;;;;0.00;0.00;;;18.50;49.30;;;;;;5032234;28;20222;-57
2023/09/29 10:45:36;;;;;;;0.00;0.00;;;18.40;49.30;;;;;;5031855;28;20192;-62
2023/09/29 10:48:10;;;;;;;0.00;0.00;;;18.40;49.30;;;;;;5032766;28;20242;-54
2023/09/29 10:50:45;;;;;;;0.05;0.05;;;18.40;49.30;;;;;;5032076;28;20211;-56
2023/09/29 10:53:15;;;;;;;0.00;0.00;;;18.40;49.30;;;;;;5029821;28;20207;-54
2023/09/29 10:55:48;;;;;;;0.00;0.00;;;18.40;49.30;;;;;;5032074;28;20188;-55
2023/09/29 10:58:20;;;;;;;0.08;0.08;;;18.40;49.40;;;;;;5032468;28;20219;-54
2023/09/29 11:00:51;;;;;;;0.10;0.10;;;18.30;49.40;;;;;;5029571;28;20683;-53
2023/09/29 11:03:26;;;;;;;0.00;0.00;;;18.30;49.40;;;;;;5031702;28;20220;-59
2023/09/29 11:05:57;;;;;;;0.10;0.10;;;18.30;49.40;;;;;;5030539;28;20199;-57
2023/09/29 11:08:34;;;;;;;0.00;0.00;;;18.30;49.40;;;;;;5029397;28;20229;-53
2023/09/29 11:11:07;;;;;;;0.00;0.00;;;18.30;49.40;;;;;;5032212;28;20203;-55
2023/09/29 11:13:38;;;;;;;0.08;0.08;;;18.30;49.40;;;;;;5031647;28;20223;-55
2023/09/29 11:16:19;;;;;;;0.10;0.10;;;18.30;49.50;;;;;;5031493;28;20242;-57
2023/09/29 11:18:51;;;;;;;0.00;0.00;;;18.20;49.40;;;;;;5031737;28;20291;-60
2023/09/29 11:21:22;;;;;;;0.00;0.00;;;18.20;49.40;;;;;;5031238;28;20250;-58
2023/09/29 11:23:53;;;;;;;0.00;0.00;;;18.20;49.50;;;;;;5032038;28;20278;-58
2023/09/29 11:26:26;;;;;;;0.00;0.00;;;18.20;49.40;;;;;;5032237;28;20215;-63
2023/09/29 11:28:58;;;;;;;0.03;0.03;;;18.20;49.50;;;;;;5032688;28;20246;-53
2023/09/29 11:31:29;;;;;;;0.10;0.10;;;18.20;49.50;;;;;;5048381;28;20278;-59
2023/09/29 11:34:01;;;;;;;0.00;0.00;;;18.20;49.50;;;;;;5037155;28;20200;-55
2023/09/29 11:36:32;;;;;;;0.00;0.00;;;18.10;49.50;;;;;;5031588;28;20381;-55
2023/09/29 11:39:03;;;;;;;0.00;0.00;;;18.10;49.50;;;;;;5031566;28;20200;-57
2023/09/29 11:41:34;;;;;;;0.00;0.00;;;18.10;49.60;;;;;;5032103;28;20200;-56
2023/09/29 11:44:04;;;;;;;0.10;0.10;;;18.10;49.50;;;;;;5031597;28;20196;-62
2023/09/29 11:46:39;;;;;;;0.00;0.00;;;18.10;49.50;;;;;;5031046;28;20201;-60
2023/09/29 11:49:11;;;;;;;0.00;0.00;;;18.10;49.60;;;;;;5031073;28;20191;-56
2023/09/29 11:51:42;;;;;;;0.10;0.10;;;18.10;49.60;;;;;;5029475;28;20191;-59
2023/09/29 11:54:13;;;;;;;0.00;0.00;;;18.00;49.50;;;;;;5031421;28;20192;-53
2023/09/29 11:56:44;;;;;;;0.00;0.00;;;18.00;49.50;;;;;;5031333;28;20218;-58
2023/09/29 11:59:14;;;;;;;0.10;0.10;;;18.00;49.60;;;;;;5030988;28;20180;-62
2023/09/29 12:01:45;;;;;;;0.10;0.10;;;18.00;49.60;;;;;;5031409;28;20302;-61
2023/09/29 12:04:17;;;;;;;0.00;0.00;;;17.90;49.60;;;;;;5031472;28;20200;-53
2023/09/29 12:06:48;;;;;;;0.00;0.00;;;17.90;49.60;;;;;;5031501;28;20203;-59
2023/09/29 12:09:19;;;;;;;0.00;0.00;;;17.90;49.60;;;;;;5030976;28;20192;-54
2023/09/29 12:11:49;;;;;;;0.00;0.00;;;17.90;49.60;;;;;;5031053;28;20287;-58
2023/09/29 12:14:20;;;;;;;0.00;0.00;;;17.90;49.70;;;;;;5031294;28;20192;-55
2023/09/29 12:16:53;;;;;;;0.03;0.03;;;17.90;49.70;;;;;;5031275;28;20200;-54
2023/09/29 12:19:25;;;;;;;0.10;0.10;;;17.90;49.70;;;;;;5031198;28;20675;-47
2023/09/29 12:21:56;;;;;;;0.00;0.00;;;17.90;49.70;;;;;;5031166;28;20724;-57
2023/09/29 12:24:26;;;;;;;0.00;0.00;;;17.90;49.70;;;;;;5031820;28;20207;-60
2023/09/29 12:26:57;;;;;;;0.00;0.00;;;17.90;49.70;;;;;;5032768;28;20570;-53
2023/09/29 12:29:29;;;;;;;0.00;0.00;;;17.80;49.70;;;;;;5035869;28;20288;-56
2023/09/29 12:31:59;;;;;;;0.00;0.00;;;17.80;49.70;;;;;;5035483;28;20306;-58
2023/09/29 12:34:33;;;;;;;0.05;0.05;;;17.80;49.70;;;;;;5035182;28;20204;-50
2023/09/29 12:37:04;;;;;;;0.10;0.10;;;17.80;49.70;;;;;;5035205;28;20200;-50
2023/09/29 12:39:35;;;;;;;0.00;0.00;;;17.80;49.70;;;;;;5035039;28;20292;-58
2023/09/29 12:42:05;;;;;;;0.00;0.00;;;17.70;49.70;;;;;;5034616;28;20216;-59
2023/09/29 12:44:38;;;;;;;0.08;0.08;;;17.70;49.70;;;;;;5034591;28;20191;-60
2023/09/29 12:47:09;;;;;;;0.00;0.00;;;17.70;49.70;;;;;;5026783;28;20604;-57
2023/09/29 12:49:42;;;;;;;0.05;0.05;;;17.70;49.70;;;;;;5034859;28;20231;-52
2023/09/29 12:52:13;;;;;;;0.00;0.00;;;17.70;49.80;;;;;;5034719;28;20227;-57
2023/09/29 12:54:45;;;;;;;0.10;0.10;;;17.70;50.40;;;;;;5034633;28;20250;-61
2023/09/29 12:57:16;;;;;;;0.10;0.10;;;17.60;49.80;;;;;;5034450;28;20621;-61
2023/09/29 12:59:47;;;;;;;0.05;0.05;;;17.60;49.80;;;;;;5034315;28;20696;-52
2023/09/29 13:02:20;;;;;;;0.00;0.00;;;17.60;49.80;;;;;;5034068;28;20222;-52
2023/09/29 13:04:52;;;;;;;0.00;0.00;;;17.60;49.80;;;;;;5034640;28;20207;-48
2023/09/29 13:07:23;;;;;;;0.10;0.10;;;17.60;49.90;;;;;;5034764;28;20231;-57
2023/09/29 13:09:54;;;;;;;0.00;0.00;;;17.60;49.90;;;;;;5034754;28;20206;-59
2023/09/29 13:12:24;;;;;;;0.10;0.10;;;17.60;49.90;;;;;;5034604;28;20699;-56
2023/09/29 13:14:55;;;;;;;0.10;0.10;;;17.60;49.90;;;;;;5034286;28;20196;-54